Stella Prima — PHEA — position and weather

sailwx.info

Track history (hours):
 
Tides and Currents Weather Stations Pressure Air Temp Water Temp Dewpoint Dewpoint Depression Visibility Wind Speed Wind Dir Waves Ship Positions

Stella Prima

Last reported at 2014-Sep-08 14:16 UTC. Time now 2014-Sep-17 07:37 UTC.
Position N 71°12' E 031°08'.
Warning: this ship's position is 8 days out of date.

Length 100 m; beam 21 m.

Type: Cargo ship. MMSI: 246460000.

Date/timePositionNaut miles runAvg speedWind from/ knotsBaromVisibWave heightAir tempDewpointWater temp
2014-Sep-08 14:16N 71°12' E 031°08'1113.6
2014-Sep-08 13:28N 71°15' E 030°35'1314.0
2014-Sep-08 12:31N 71°19' E 029°56'1414.0
2014-Sep-08 11:31N 71°23' E 029°13'1413.5
2014-Sep-08 10:31N 71°26' E 028°33'1313.0
2014-Sep-08 09:31N 71°30' E 027°53'1312.8
2014-Sep-08 08:31N 71°33' E 027°14'1212.4
2014-Sep-08 07:31N 71°36' E 026°36'1212.3
2014-Sep-08 06:31N 71°39' E 025°58'1212.2
2014-Sep-08 05:31N 71°38' E 025°20'1212.2
2014-Sep-08 04:31N 71°36' E 024°42'1312.6
2014-Sep-08 03:31N 71°34' E 024°02'1312.6
2014-Sep-08 02:31N 71°31' E 023°23'1312.9
2014-Sep-08 01:31N 71°28' E 022°44'1313.1
2014-Sep-08 00:31N 71°25' E 022°04'1313.0
2014-Sep-07 23:31N 71°19' E 021°27'1513.4
2014-Sep-07 22:25N 71°13' E 020°45'1213.3
2014-Sep-07 21:31N 71°09' E 020°11'1313.0
2014-Sep-07 20:31N 71°03' E 019°35'1413.2
2014-Sep-07 19:28N 70°57' E 018°57'1213.0
2014-Sep-07 18:31N 70°49' E 018°29'1312.5
2014-Sep-07 17:31N 70°40' E 018°01'1312.7
2014-Sep-07 16:31N 70°32' E 017°33'1313.2
2014-Sep-07 15:31N 70°23' E 017°04'1313.1
2014-Sep-07 14:31N 70°14' E 016°35'1312.9
2014-Sep-07 13:31N 70°05' E 016°07'1312.9
2014-Sep-07 12:31N 69°57' E 015°39'1313.1
2014-Sep-07 11:31N 69°48' E 015°11'2713.3
2014-Sep-07 09:31N 69°29' E 014°16'1312.8
2014-Sep-07 08:31N 69°21' E 013°49'1413.5
2014-Sep-07 07:28N 69°11' E 013°19'9413.1
2014-Sep-07 00:16N 68°08' E 010°07'  
2014-Sep-04 15:32N 56°08' E 005°17'1913.2
2014-Sep-04 14:07N 55°50' E 005°20'11012.8
2014-Sep-04 05:30N 54°00' E 004°56'1212.8
2014-Sep-04 04:33N 53°48' E 004°55'1312.6
2014-Sep-04 03:34N 53°36' E 004°50'1313.1
2014-Sep-04 02:33N 53°23' E 004°42'1413.4
2014-Sep-04 01:33N 53°11' E 004°33'1313.3
2014-Sep-04 00:33N 52°60' E 004°21'4013.1
2014-Sep-03 21:29N 52°29' E 003°39'1613.5
2014-Sep-03 20:17N 52°17' E 003°21'1013.4
2014-Sep-03 19:31N 52°09' E 003°09'1312.7
2014-Sep-03 18:30N 51°56' E 003°06'1111.9
2014-Sep-03 17:33N 51°46' E 003°12'1211.9
2014-Sep-03 16:33N 51°36' E 003°23'1010.4
2014-Sep-03 15:34N 51°27' E 003°32'10 9.4
2014-Sep-03 14:32N 51°23' E 003°46'0 0.0
2014-Sep-03 13:32N 51°23' E 003°46'0 0.0
2014-Sep-03 12:32N 51°23' E 003°46'0 0.0
2014-Sep-03 11:33N 51°23' E 003°46'0 0.0
2014-Sep-03 10:33N 51°23' E 003°46'0 0.0
2014-Sep-03 09:33N 51°23' E 003°46'0 0.0
2014-Sep-03 08:33N 51°23' E 003°46'0 0.0
2014-Sep-03 07:33N 51°23' E 003°46'0 0.1
2014-Sep-03 06:33N 51°23' E 003°47'0 0.0
2014-Sep-03 05:33N 51°23' E 003°47'0 0.0
2014-Sep-03 04:33N 51°23' E 003°47'0 0.0
2014-Sep-03 03:33N 51°23' E 003°47'0 0.0
2014-Sep-03 02:33N 51°23' E 003°46'0 0.0
2014-Sep-03 01:33N 51°23' E 003°46'0 0.0
2014-Sep-03 00:33N 51°23' E 003°46'0 0.0
2014-Sep-02 23:33N 51°23' E 003°46'0 0.0
2014-Sep-02 22:33N 51°23' E 003°46'0 0.1
2014-Sep-02 21:33N 51°23' E 003°46'0 0.0
2014-Sep-02 20:33N 51°23' E 003°46'2 2.0
2014-Sep-02 19:33N 51°24' E 003°44'1211.6
2014-Sep-02 18:33N 51°24' E 003°25'1313.3
2014-Sep-02 17:33N 51°24' E 003°04'1313.0
2014-Sep-02 16:33N 51°22' E 002°43'1313.0
2014-Sep-02 15:33N 51°20' E 002°23'1313.3
2014-Sep-02 14:33N 51°13' E 002°05'1211.9
2014-Sep-02 13:34N 51°07' E 001°48'7 7.4
2014-Sep-02 12:33N 51°02' E 001°58'1514.4
2014-Sep-02 11:31N 51°04' E 002°21'1 0.8
2014-Sep-02 10:33N 51°03' E 002°20'1 0.6
2014-Sep-02 09:31N 51°03' E 002°21'0 0.0
2014-Sep-02 08:31N 51°03' E 002°21'0 0.0
2014-Sep-02 07:31N 51°03' E 002°21'0 0.0
2014-Sep-02 06:31N 51°03' E 002°21'0 0.0
2014-Sep-02 05:25N 51°03' E 002°21'0 0.0
2014-Sep-02 04:31N 51°03' E 002°21'0 0.0
2014-Sep-02 03:31N 51°03' E 002°21'0 0.0
2014-Sep-02 02:28N 51°03' E 002°21'0 0.0
2014-Sep-02 01:31N 51°03' E 002°21'0 0.0
2014-Sep-02 00:28N 51°03' E 002°21'0 0.0
2014-Sep-01 23:25N 51°03' E 002°21'0 0.0
2014-Sep-01 22:22N 51°03' E 002°21'0 0.0
2014-Sep-01 21:28N 51°03' E 002°21'0 0.0
2014-Sep-01 20:31N 51°03' E 002°21'0 0.0
2014-Sep-01 19:25N 51°03' E 002°21'0 0.0
2014-Sep-01 18:16N 51°03' E 002°21'0 0.0
2014-Sep-01 17:07N 51°03' E 002°21'0 0.0
2014-Sep-01 16:31N 51°03' E 002°21'0 0.0
2014-Sep-01 15:34N 51°03' E 002°21'0 0.0
2014-Sep-01 14:28N 51°03' E 002°21'0 0.0
2014-Sep-01 13:22N 51°03' E 002°21'0 0.0
2014-Sep-01 12:31N 51°03' E 002°21'0 0.0
2014-Sep-01 11:33N 51°03' E 002°21'0 0.0
2014-Sep-01 10:34N 51°03' E 002°21'0 0.0
2014-Sep-01 09:21N 51°03' E 002°21'0 0.0
2014-Sep-01 08:25N 51°03' E 002°21'0 0.0
2014-Sep-01 07:33N 51°03' E 002°21'0 0.0
2014-Sep-01 06:34N 51°03' E 002°21'0 0.0
2014-Sep-01 05:33N 51°03' E 002°21'0 0.0
2014-Sep-01 04:34N 51°03' E 002°21'0 0.0
2014-Sep-01 03:33N 51°03' E 002°21'0 0.0
2014-Sep-01 02:34N 51°03' E 002°21'0 0.0
2014-Sep-01 01:33N 51°03' E 002°21'0 0.0
2014-Sep-01 00:21N 51°03' E 002°21'0 0.0
2014-Aug-31 23:22N 51°03' E 002°21'0 0.0
2014-Aug-31 22:22N 51°03' E 002°21'0 0.0
2014-Aug-31 21:04N 51°03' E 002°21'0 0.0
2014-Aug-31 20:13N 51°03' E 002°21'0 0.0
2014-Aug-31 19:28N 51°03' E 002°21'0 0.0
2014-Aug-31 18:31N 51°03' E 002°21'0 0.0
2014-Aug-31 17:28N 51°03' E 002°21'0 0.0
2014-Aug-31 16:28N 51°03' E 002°21'0 0.0
2014-Aug-31 15:22N 51°03' E 002°21'0 0.0
2014-Aug-31 14:31N 51°03' E 002°21'0 0.0
2014-Aug-31 13:22N 51°03' E 002°21'0 0.0
2014-Aug-31 12:31N 51°03' E 002°21'0 0.0
2014-Aug-31 11:25N 51°03' E 002°21'0 0.0
2014-Aug-31 10:28N 51°03' E 002°21'0 0.0
2014-Aug-31 09:28N 51°03' E 002°21'0 0.0
2014-Aug-31 08:31N 51°03' E 002°21'0 0.0
2014-Aug-31 07:28N 51°03' E 002°21'0 0.0
2014-Aug-31 06:19N 51°03' E 002°21'0 0.0
2014-Aug-31 05:31N 51°03' E 002°21'0 0.0
2014-Aug-31 04:28N 51°03' E 002°21'0 0.0
2014-Aug-31 03:31N 51°03' E 002°21'0 0.0
2014-Aug-31 02:31N 51°03' E 002°21'0 0.0
2014-Aug-31 01:28N 51°03' E 002°21'0 0.0
2014-Aug-31 00:31N 51°03' E 002°21'0 0.0
2014-Aug-30 23:25N 51°03' E 002°21'0 0.0
2014-Aug-30 22:31N 51°03' E 002°21'0 0.0
2014-Aug-30 21:31N 51°03' E 002°21'0 0.0
2014-Aug-30 20:28N 51°03' E 002°21'0 0.0
2014-Aug-30 19:31N 51°03' E 002°21'0 0.0
2014-Aug-30 18:22N 51°03' E 002°21'0 0.0
2014-Aug-30 17:31N 51°03' E 002°21'0 0.0
2014-Aug-30 16:16N 51°03' E 002°21'0 0.0
2014-Aug-30 15:29N 51°03' E 002°21'0 0.0
2014-Aug-30 14:10N 51°03' E 002°21'0 0.0
2014-Aug-30 13:31N 51°03' E 002°21'0 0.0
2014-Aug-30 12:28N 51°03' E 002°21'0 0.0
2014-Aug-30 11:31N 51°03' E 002°21'0 0.0
2014-Aug-30 10:28N 51°03' E 002°21'0 0.0
2014-Aug-30 09:22N 51°03' E 002°21'0 0.0
2014-Aug-30 08:25N 51°03' E 002°21'0 0.0
2014-Aug-30 07:28N 51°03' E 002°21'0 0.0
2014-Aug-30 05:16N 51°03' E 002°21'0 0.0
2014-Aug-30 04:28N 51°03' E 002°21'0 0.0
2014-Aug-30 03:28N 51°03' E 002°21'0 0.0
2014-Aug-30 02:28N 51°03' E 002°21'0 0.0
2014-Aug-30 01:22N 51°03' E 002°21'0 0.0
2014-Aug-30 00:22N 51°03' E 002°21'0 0.0
2014-Aug-29 23:28N 51°03' E 002°21'0 0.0
2014-Aug-29 22:31N 51°03' E 002°21'0 0.0
2014-Aug-29 21:28N 51°03' E 002°21'0 0.0
2014-Aug-29 20:13N 51°03' E 002°21'0 0.0
2014-Aug-29 19:22N 51°03' E 002°21'0 0.0
2014-Aug-29 18:28N 51°03' E 002°21'0 0.0
2014-Aug-29 17:22N 51°03' E 002°21'0 0.0
2014-Aug-29 16:31N 51°03' E 002°21'0 0.0
2014-Aug-29 15:31N 51°03' E 002°21'0 0.0
2014-Aug-29 14:31N 51°03' E 002°21'  
Track history (hours):
 
Tides and Currents Weather Stations Pressure Air Temp Water Temp Dewpoint Dewpoint Depression Visibility Wind Speed Wind Dir Waves Ship Positions

Stella Prima

Last reported at 2014-Sep-08 14:16 UTC. Time now 2014-Sep-17 07:37 UTC.
Position N 71°12' E 031°08'.
Warning: this ship's position is 8 days out of date.

Length 100 m; beam 21 m.

Type: Cargo ship. MMSI: 246460000.

Date/timePositionNaut miles runAvg speedWind from/ knotsBaromVisibWave heightAir tempDewpointWater temp
2014-Sep-08 14:16N 71°12' E 031°08'1113.6
2014-Sep-08 13:28N 71°15' E 030°35'1314.0
2014-Sep-08 12:31N 71°19' E 029°56'1414.0
2014-Sep-08 11:31N 71°23' E 029°13'1413.5
2014-Sep-08 10:31N 71°26' E 028°33'1313.0
2014-Sep-08 09:31N 71°30' E 027°53'1312.8
2014-Sep-08 08:31N 71°33' E 027°14'1212.4
2014-Sep-08 07:31N 71°36' E 026°36'1212.3
2014-Sep-08 06:31N 71°39' E 025°58'1212.2
2014-Sep-08 05:31N 71°38' E 025°20'1212.2
2014-Sep-08 04:31N 71°36' E 024°42'1312.6
2014-Sep-08 03:31N 71°34' E 024°02'1312.6
2014-Sep-08 02:31N 71°31' E 023°23'1312.9
2014-Sep-08 01:31N 71°28' E 022°44'1313.1
2014-Sep-08 00:31N 71°25' E 022°04'1313.0
2014-Sep-07 23:31N 71°19' E 021°27'1513.4
2014-Sep-07 22:25N 71°13' E 020°45'1213.3
2014-Sep-07 21:31N 71°09' E 020°11'1313.0
2014-Sep-07 20:31N 71°03' E 019°35'1413.2
2014-Sep-07 19:28N 70°57' E 018°57'1213.0
2014-Sep-07 18:31N 70°49' E 018°29'1312.5
2014-Sep-07 17:31N 70°40' E 018°01'1312.7
2014-Sep-07 16:31N 70°32' E 017°33'1313.2
2014-Sep-07 15:31N 70°23' E 017°04'1313.1
2014-Sep-07 14:31N 70°14' E 016°35'1312.9
2014-Sep-07 13:31N 70°05' E 016°07'1312.9
2014-Sep-07 12:31N 69°57' E 015°39'1313.1
2014-Sep-07 11:31N 69°48' E 015°11'2713.3
2014-Sep-07 09:31N 69°29' E 014°16'1312.8
2014-Sep-07 08:31N 69°21' E 013°49'1413.5
2014-Sep-07 07:28N 69°11' E 013°19'9413.1
2014-Sep-07 00:16N 68°08' E 010°07'  
2014-Sep-04 15:32N 56°08' E 005°17'1913.2
2014-Sep-04 14:07N 55°50' E 005°20'11012.8
2014-Sep-04 05:30N 54°00' E 004°56'1212.8
2014-Sep-04 04:33N 53°48' E 004°55'1312.6
2014-Sep-04 03:34N 53°36' E 004°50'1313.1
2014-Sep-04 02:33N 53°23' E 004°42'1413.4
2014-Sep-04 01:33N 53°11' E 004°33'1313.3
2014-Sep-04 00:33N 52°60' E 004°21'4013.1
2014-Sep-03 21:29N 52°29' E 003°39'1613.5
2014-Sep-03 20:17N 52°17' E 003°21'1013.4
2014-Sep-03 19:31N 52°09' E 003°09'1312.7
2014-Sep-03 18:30N 51°56' E 003°06'1111.9
2014-Sep-03 17:33N 51°46' E 003°12'1211.9
2014-Sep-03 16:33N 51°36' E 003°23'1010.4
2014-Sep-03 15:34N 51°27' E 003°32'10 9.4
2014-Sep-03 14:32N 51°23' E 003°46'0 0.0
2014-Sep-03 13:32N 51°23' E 003°46'0 0.0
2014-Sep-03 12:32N 51°23' E 003°46'0 0.0
2014-Sep-03 11:33N 51°23' E 003°46'0 0.0
2014-Sep-03 10:33N 51°23' E 003°46'0 0.0
2014-Sep-03 09:33N 51°23' E 003°46'0 0.0
2014-Sep-03 08:33N 51°23' E 003°46'0 0.0
2014-Sep-03 07:33N 51°23' E 003°46'0 0.1
2014-Sep-03 06:33N 51°23' E 003°47'0 0.0
2014-Sep-03 05:33N 51°23' E 003°47'0 0.0
2014-Sep-03 04:33N 51°23' E 003°47'0 0.0
2014-Sep-03 03:33N 51°23' E 003°47'0 0.0
2014-Sep-03 02:33N 51°23' E 003°46'0 0.0
2014-Sep-03 01:33N 51°23' E 003°46'0 0.0
2014-Sep-03 00:33N 51°23' E 003°46'0 0.0
2014-Sep-02 23:33N 51°23' E 003°46'0 0.0
2014-Sep-02 22:33N 51°23' E 003°46'0 0.1
2014-Sep-02 21:33N 51°23' E 003°46'0 0.0
2014-Sep-02 20:33N 51°23' E 003°46'2 2.0
2014-Sep-02 19:33N 51°24' E 003°44'1211.6
2014-Sep-02 18:33N 51°24' E 003°25'1313.3
2014-Sep-02 17:33N 51°24' E 003°04'1313.0
2014-Sep-02 16:33N 51°22' E 002°43'1313.0
2014-Sep-02 15:33N 51°20' E 002°23'1313.3
2014-Sep-02 14:33N 51°13' E 002°05'1211.9
2014-Sep-02 13:34N 51°07' E 001°48'7 7.4
2014-Sep-02 12:33N 51°02' E 001°58'1514.4
2014-Sep-02 11:31N 51°04' E 002°21'1 0.8
2014-Sep-02 10:33N 51°03' E 002°20'1 0.6
2014-Sep-02 09:31N 51°03' E 002°21'0 0.0
2014-Sep-02 08:31N 51°03' E 002°21'0 0.0
2014-Sep-02 07:31N 51°03' E 002°21'0 0.0
2014-Sep-02 06:31N 51°03' E 002°21'0 0.0
2014-Sep-02 05:25N 51°03' E 002°21'0 0.0
2014-Sep-02 04:31N 51°03' E 002°21'0 0.0
2014-Sep-02 03:31N 51°03' E 002°21'0 0.0
2014-Sep-02 02:28N 51°03' E 002°21'0 0.0
2014-Sep-02 01:31N 51°03' E 002°21'0 0.0
2014-Sep-02 00:28N 51°03' E 002°21'0 0.0
2014-Sep-01 23:25N 51°03' E 002°21'0 0.0
2014-Sep-01 22:22N 51°03' E 002°21'0 0.0
2014-Sep-01 21:28N 51°03' E 002°21'0 0.0
2014-Sep-01 20:31N 51°03' E 002°21'0 0.0
2014-Sep-01 19:25N 51°03' E 002°21'0 0.0
2014-Sep-01 18:16N 51°03' E 002°21'0 0.0
2014-Sep-01 17:07N 51°03' E 002°21'0 0.0
2014-Sep-01 16:31N 51°03' E 002°21'0 0.0
2014-Sep-01 15:34N 51°03' E 002°21'0 0.0
2014-Sep-01 14:28N 51°03' E 002°21'0 0.0
2014-Sep-01 13:22N 51°03' E 002°21'0 0.0
2014-Sep-01 12:31N 51°03' E 002°21'0 0.0
2014-Sep-01 11:33N 51°03' E 002°21'0 0.0
2014-Sep-01 10:34N 51°03' E 002°21'0 0.0
2014-Sep-01 09:21N 51°03' E 002°21'0 0.0
2014-Sep-01 08:25N 51°03' E 002°21'0 0.0
2014-Sep-01 07:33N 51°03' E 002°21'0 0.0
2014-Sep-01 06:34N 51°03' E 002°21'0 0.0
2014-Sep-01 05:33N 51°03' E 002°21'0 0.0
2014-Sep-01 04:34N 51°03' E 002°21'0 0.0
2014-Sep-01 03:33N 51°03' E 002°21'0 0.0
2014-Sep-01 02:34N 51°03' E 002°21'0 0.0
2014-Sep-01 01:33N 51°03' E 002°21'0 0.0
2014-Sep-01 00:21N 51°03' E 002°21'0 0.0
2014-Aug-31 23:22N 51°03' E 002°21'0 0.0
2014-Aug-31 22:22N 51°03' E 002°21'0 0.0
2014-Aug-31 21:04N 51°03' E 002°21'0 0.0
2014-Aug-31 20:13N 51°03' E 002°21'0 0.0
2014-Aug-31 19:28N 51°03' E 002°21'0 0.0
2014-Aug-31 18:31N 51°03' E 002°21'0 0.0
2014-Aug-31 17:28N 51°03' E 002°21'0 0.0
2014-Aug-31 16:28N 51°03' E 002°21'0 0.0
2014-Aug-31 15:22N 51°03' E 002°21'0 0.0
2014-Aug-31 14:31N 51°03' E 002°21'0 0.0
2014-Aug-31 13:22N 51°03' E 002°21'0 0.0
2014-Aug-31 12:31N 51°03' E 002°21'0 0.0
2014-Aug-31 11:25N 51°03' E 002°21'0 0.0
2014-Aug-31 10:28N 51°03' E 002°21'0 0.0
2014-Aug-31 09:28N 51°03' E 002°21'0 0.0
2014-Aug-31 08:31N 51°03' E 002°21'0 0.0
2014-Aug-31 07:28N 51°03' E 002°21'0 0.0
2014-Aug-31 06:19N 51°03' E 002°21'0 0.0
2014-Aug-31 05:31N 51°03' E 002°21'0 0.0
2014-Aug-31 04:28N 51°03' E 002°21'0 0.0
2014-Aug-31 03:31N 51°03' E 002°21'0 0.0
2014-Aug-31 02:31N 51°03' E 002°21'0 0.0
2014-Aug-31 01:28N 51°03' E 002°21'0 0.0
2014-Aug-31 00:31N 51°03' E 002°21'0 0.0
2014-Aug-30 23:25N 51°03' E 002°21'0 0.0
2014-Aug-30 22:31N 51°03' E 002°21'0 0.0
2014-Aug-30 21:31N 51°03' E 002°21'0 0.0
2014-Aug-30 20:28N 51°03' E 002°21'0 0.0
2014-Aug-30 19:31N 51°03' E 002°21'0 0.0
2014-Aug-30 18:22N 51°03' E 002°21'0 0.0
2014-Aug-30 17:31N 51°03' E 002°21'0 0.0
2014-Aug-30 16:16N 51°03' E 002°21'0 0.0
2014-Aug-30 15:29N 51°03' E 002°21'0 0.0
2014-Aug-30 14:10N 51°03' E 002°21'0 0.0
2014-Aug-30 13:31N 51°03' E 002°21'0 0.0
2014-Aug-30 12:28N 51°03' E 002°21'0 0.0
2014-Aug-30 11:31N 51°03' E 002°21'0 0.0
2014-Aug-30 10:28N 51°03' E 002°21'0 0.0
2014-Aug-30 09:22N 51°03' E 002°21'0 0.0
2014-Aug-30 08:25N 51°03' E 002°21'0 0.0
2014-Aug-30 07:28N 51°03' E 002°21'0 0.0
2014-Aug-30 05:16N 51°03' E 002°21'0 0.0
2014-Aug-30 04:28N 51°03' E 002°21'0 0.0
2014-Aug-30 03:28N 51°03' E 002°21'0 0.0
2014-Aug-30 02:28N 51°03' E 002°21'0 0.0
2014-Aug-30 01:22N 51°03' E 002°21'0 0.0
2014-Aug-30 00:22N 51°03' E 002°21'0 0.0
2014-Aug-29 23:28N 51°03' E 002°21'0 0.0
2014-Aug-29 22:31N 51°03' E 002°21'0 0.0
2014-Aug-29 21:28N 51°03' E 002°21'0 0.0
2014-Aug-29 20:13N 51°03' E 002°21'0 0.0
2014-Aug-29 19:22N 51°03' E 002°21'0 0.0
2014-Aug-29 18:28N 51°03' E 002°21'0 0.0
2014-Aug-29 17:22N 51°03' E 002°21'0 0.0
2014-Aug-29 16:31N 51°03' E 002°21'0 0.0
2014-Aug-29 15:31N 51°03' E 002°21'0 0.0
2014-Aug-29 14:31N 51°03' E 002°21'  

Dump ship's entire track history